sensor_id;sensor_type;location;lat;lon;timestamp;P1;durP1;ratioP1;P2;durP2;ratioP2
60054;SDS011;45930;53.514;55.904;2023-08-20T00:00:08;23.92;;;16.48;;
60054;SDS011;45930;53.514;55.904;2023-08-20T00:01:12;23.83;;;14.88;;
60054;SDS011;45930;53.514;55.904;2023-08-20T00:02:15;24.13;;;15.25;;
60054;SDS011;45930;53.514;55.904;2023-08-20T00:03:19;20.90;;;16.98;;
60054;SDS011;45930;53.514;55.904;2023-08-20T00:04:20;19.40;;;14.60;;
60054;SDS011;45930;53.514;55.904;2023-08-20T00:05:22;24.88;;;16.00;;
60054;SDS011;45930;53.514;55.904;2023-08-20T00:06:23;21.50;;;14.68;;
60054;SDS011;45930;53.514;55.904;2023-08-20T00:07:25;21.40;;;14.25;;
60054;SDS011;45930;53.514;55.904;2023-08-20T00:08:26;21.58;;;15.05;;
60054;SDS011;45930;53.514;55.904;2023-08-20T00:09:27;20.90;;;15.05;;
60054;SDS011;45930;53.514;55.904;2023-08-20T00:10:28;21.85;;;14.85;;
60054;SDS011;45930;53.514;55.904;2023-08-20T00:11:28;24.80;;;14.98;;
60054;SDS011;45930;53.514;55.904;2023-08-20T00:12:30;22.48;;;15.00;;
60054;SDS011;45930;53.514;55.904;2023-08-20T00:13:31;24.05;;;15.60;;
60054;SDS011;45930;53.514;55.904;2023-08-20T00:15:14;21.98;;;15.27;;
60054;SDS011;45930;53.514;55.904;2023-08-20T00:15:57;22.55;;;15.07;;
60054;SDS011;45930;53.514;55.904;2023-08-20T00:16:58;23.15;;;15.65;;
60054;SDS011;45930;53.514;55.904;2023-08-20T00:18:00;24.92;;;15.98;;
60054;SDS011;45930;53.514;55.904;2023-08-20T00:19:01;26.05;;;15.10;;
60054;SDS011;45930;53.514;55.904;2023-08-20T00:20:04;22.02;;;15.75;;
60054;SDS011;45930;53.514;55.904;2023-08-20T00:21:16;26.85;;;16.40;;
60054;SDS011;45930;53.514;55.904;2023-08-20T00:22:17;23.55;;;14.73;;
60054;SDS011;45930;53.514;55.904;2023-08-20T00:23:18;26.70;;;16.45;;
60054;SDS011;45930;53.514;55.904;2023-08-20T00:24:19;21.20;;;15.27;;
60054;SDS011;45930;53.514;55.904;2023-08-20T00:25:20;22.42;;;15.93;;
60054;SDS011;45930;53.514;55.904;2023-08-20T00:26:21;21.52;;;15.10;;
60054;SDS011;45930;53.514;55.904;2023-08-20T00:27:22;22.35;;;15.00;;
60054;SDS011;45930;53.514;55.904;2023-08-20T00:28:23;20.75;;;14.75;;
60054;SDS011;45930;53.514;55.904;2023-08-20T00:29:24;21.70;;;14.90;;
60054;SDS011;45930;53.514;55.904;2023-08-20T00:30:25;28.40;;;15.68;;
60054;SDS011;45930;53.514;55.904;2023-08-20T00:31:26;25.52;;;15.80;;
60054;SDS011;45930;53.514;55.904;2023-08-20T00:32:26;22.55;;;14.82;;
60054;SDS011;45930;53.514;55.904;2023-08-20T00:33:27;23.58;;;14.93;;
60054;SDS011;45930;53.514;55.904;2023-08-20T00:34:29;20.50;;;13.88;;
60054;SDS011;45930;53.514;55.904;2023-08-20T00:35:29;18.70;;;13.82;;
60054;SDS011;45930;53.514;55.904;2023-08-20T00:36:30;21.48;;;13.77;;
60054;SDS011;45930;53.514;55.904;2023-08-20T00:37:31;21.20;;;13.88;;
60054;SDS011;45930;53.514;55.904;2023-08-20T00:38:32;20.90;;;14.55;;
60054;SDS011;45930;53.514;55.904;2023-08-20T00:39:33;21.23;;;15.07;;
60054;SDS011;45930;53.514;55.904;2023-08-20T00:40:34;22.92;;;15.57;;
60054;SDS011;45930;53.514;55.904;2023-08-20T00:41:35;20.73;;;15.15;;
60054;SDS011;45930;53.514;55.904;2023-08-20T00:42:36;22.33;;;14.48;;
60054;SDS011;45930;53.514;55.904;2023-08-20T00:43:37;20.88;;;14.18;;
60054;SDS011;45930;53.514;55.904;2023-08-20T00:44:38;22.75;;;14.80;;
60054;SDS011;45930;53.514;55.904;2023-08-20T00:45:40;20.48;;;15.23;;
60054;SDS011;45930;53.514;55.904;2023-08-20T00:46:41;19.58;;;13.85;;
60054;SDS011;45930;53.514;55.904;2023-08-20T00:47:42;20.42;;;14.25;;
60054;SDS011;45930;53.514;55.904;2023-08-20T00:48:43;20.63;;;13.88;;
60054;SDS011;45930;53.514;55.904;2023-08-20T00:49:45;22.30;;;13.20;;
60054;SDS011;45930;53.514;55.904;2023-08-20T00:50:47;20.30;;;14.45;;
60054;SDS011;45930;53.514;55.904;2023-08-20T00:51:49;19.40;;;14.88;;
60054;SDS011;45930;53.514;55.904;2023-08-20T00:52:51;21.98;;;14.65;;
60054;SDS011;45930;53.514;55.904;2023-08-20T00:53:51;17.92;;;13.27;;
60054;SDS011;45930;53.514;55.904;2023-08-20T00:54:52;19.75;;;13.43;;
60054;SDS011;45930;53.514;55.904;2023-08-20T00:55:54;19.45;;;12.80;;
60054;SDS011;45930;53.514;55.904;2023-08-20T00:56:55;17.98;;;13.00;;
60054;SDS011;45930;53.514;55.904;2023-08-20T00:57:56;17.27;;;13.30;;
60054;SDS011;45930;53.514;55.904;2023-08-20T00:58:57;21.48;;;13.93;;
60054;SDS011;45930;53.514;55.904;2023-08-20T00:59:58;22.73;;;14.95;;
60054;SDS011;45930;53.514;55.904;2023-08-20T01:00:59;20.27;;;13.75;;
60054;SDS011;45930;53.514;55.904;2023-08-20T01:02:00;23.25;;;15.43;;
60054;SDS011;45930;53.514;55.904;2023-08-20T01:03:01;20.23;;;13.98;;
60054;SDS011;45930;53.514;55.904;2023-08-20T01:04:02;20.25;;;13.50;;
60054;SDS011;45930;53.514;55.904;2023-08-20T01:05:04;19.02;;;13.43;;
60054;SDS011;45930;53.514;55.904;2023-08-20T01:06:12;22.13;;;13.40;;
60054;SDS011;45930;53.514;55.904;2023-08-20T01:09:09;21.05;;;13.85;;
60054;SDS011;45930;53.514;55.904;2023-08-20T01:11:29;18.02;;;12.30;;
60054;SDS011;45930;53.514;55.904;2023-08-20T01:12:37;17.15;;;12.48;;
60054;SDS011;45930;53.514;55.904;2023-08-20T01:13:39;18.25;;;11.88;;
60054;SDS011;45930;53.514;55.904;2023-08-20T01:14:40;16.40;;;12.15;;
60054;SDS011;45930;53.514;55.904;2023-08-20T01:15:41;20.50;;;14.05;;
60054;SDS011;45930;53.514;55.904;2023-08-20T01:16:42;22.77;;;15.15;;
60054;SDS011;45930;53.514;55.904;2023-08-20T01:17:43;23.73;;;15.77;;
60054;SDS011;45930;53.514;55.904;2023-08-20T01:18:47;25.90;;;16.75;;
60054;SDS011;45930;53.514;55.904;2023-08-20T01:19:48;26.00;;;16.50;;
60054;SDS011;45930;53.514;55.904;2023-08-20T01:20:54;22.20;;;15.88;;
60054;SDS011;45930;53.514;55.904;2023-08-20T01:29:13;22.73;;;15.27;;
60054;SDS011;45930;53.514;55.904;2023-08-20T01:30:15;21.67;;;14.13;;
60054;SDS011;45930;53.514;55.904;2023-08-20T01:31:16;25.15;;;14.80;;
60054;SDS011;45930;53.514;55.904;2023-08-20T01:32:17;26.83;;;15.10;;
60054;SDS011;45930;53.514;55.904;2023-08-20T01:33:20;26.08;;;14.98;;
60054;SDS011;45930;53.514;55.904;2023-08-20T01:34:21;21.88;;;14.85;;
60054;SDS011;45930;53.514;55.904;2023-08-20T01:35:23;22.40;;;15.13;;
60054;SDS011;45930;53.514;55.904;2023-08-20T01:36:26;25.23;;;14.98;;
60054;SDS011;45930;53.514;55.904;2023-08-20T01:37:28;25.80;;;15.30;;
60054;SDS011;45930;53.514;55.904;2023-08-20T01:38:29;20.00;;;14.63;;
60054;SDS011;45930;53.514;55.904;2023-08-20T01:39:30;23.83;;;14.93;;
60054;SDS011;45930;53.514;55.904;2023-08-20T01:40:31;20.27;;;14.55;;
60054;SDS011;45930;53.514;55.904;2023-08-20T01:41:31;21.42;;;13.85;;
60054;SDS011;45930;53.514;55.904;2023-08-20T01:42:32;18.60;;;12.90;;
60054;SDS011;45930;53.514;55.904;2023-08-20T01:43:33;22.38;;;14.20;;
60054;SDS011;45930;53.514;55.904;2023-08-20T01:44:34;18.48;;;13.75;;
60054;SDS011;45930;53.514;55.904;2023-08-20T01:45:35;23.98;;;14.95;;
60054;SDS011;45930;53.514;55.904;2023-08-20T01:46:36;24.50;;;13.35;;
60054;SDS011;45930;53.514;55.904;2023-08-20T01:47:37;20.27;;;13.27;;
60054;SDS011;45930;53.514;55.904;2023-08-20T01:48:38;21.95;;;13.32;;
60054;SDS011;45930;53.514;55.904;2023-08-20T01:49:38;19.83;;;14.25;;
60054;SDS011;45930;53.514;55.904;2023-08-20T01:50:39;22.15;;;13.25;;
60054;SDS011;45930;53.514;55.904;2023-08-20T01:51:40;19.02;;;13.32;;
60054;SDS011;45930;53.514;55.904;2023-08-20T01:52:41;20.92;;;13.70;;
60054;SDS011;45930;53.514;55.904;2023-08-20T01:53:42;20.25;;;14.00;;
60054;SDS011;45930;53.514;55.904;2023-08-20T01:54:42;20.35;;;14.02;;
60054;SDS011;45930;53.514;55.904;2023-08-20T01:55:43;22.00;;;14.70;;
60054;SDS011;45930;53.514;55.904;2023-08-20T01:56:44;22.02;;;13.77;;
60054;SDS011;45930;53.514;55.904;2023-08-20T01:57:45;17.88;;;13.50;;
60054;SDS011;45930;53.514;55.904;2023-08-20T01:58:46;24.48;;;15.85;;
60054;SDS011;45930;53.514;55.904;2023-08-20T01:59:47;25.23;;;15.20;;
60054;SDS011;45930;53.514;55.904;2023-08-20T02:00:48;21.08;;;15.82;;
60054;SDS011;45930;53.514;55.904;2023-08-20T02:01:49;21.60;;;14.52;;
60054;SDS011;45930;53.514;55.904;2023-08-20T02:02:50;21.15;;;14.52;;
60054;SDS011;45930;53.514;55.904;2023-08-20T02:03:50;18.48;;;13.68;;
60054;SDS011;45930;53.514;55.904;2023-08-20T02:04:51;20.83;;;13.70;;
60054;SDS011;45930;53.514;55.904;2023-08-20T02:05:52;23.67;;;14.23;;
60054;SDS011;45930;53.514;55.904;2023-08-20T02:06:53;21.63;;;14.52;;
60054;SDS011;45930;53.514;55.904;2023-08-20T02:07:54;24.10;;;14.88;;
60054;SDS011;45930;53.514;55.904;2023-08-20T02:08:55;21.83;;;14.55;;
60054;SDS011;45930;53.514;55.904;2023-08-20T02:09:55;26.25;;;15.52;;
60054;SDS011;45930;53.514;55.904;2023-08-20T02:11:02;23.77;;;14.75;;
60054;SDS011;45930;53.514;55.904;2023-08-20T02:12:04;22.10;;;14.25;;
60054;SDS011;45930;53.514;55.904;2023-08-20T02:13:05;20.23;;;13.60;;
60054;SDS011;45930;53.514;55.904;2023-08-20T02:14:07;18.98;;;12.98;;
60054;SDS011;45930;53.514;55.904;2023-08-20T02:15:08;21.13;;;13.18;;
60054;SDS011;45930;53.514;55.904;2023-08-20T02:16:11;19.20;;;12.10;;
60054;SDS011;45930;53.514;55.904;2023-08-20T02:17:31;25.63;;;13.93;;
60054;SDS011;45930;53.514;55.904;2023-08-20T02:18:32;20.70;;;12.82;;
60054;SDS011;45930;53.514;55.904;2023-08-20T02:19:33;19.00;;;12.70;;
60054;SDS011;45930;53.514;55.904;2023-08-20T02:20:34;20.50;;;12.13;;
60054;SDS011;45930;53.514;55.904;2023-08-20T02:21:35;18.80;;;12.90;;
60054;SDS011;45930;53.514;55.904;2023-08-20T02:22:36;20.63;;;13.15;;
60054;SDS011;45930;53.514;55.904;2023-08-20T02:23:37;18.70;;;14.07;;
60054;SDS011;45930;53.514;55.904;2023-08-20T02:24:38;21.50;;;13.57;;
60054;SDS011;45930;53.514;55.904;2023-08-20T02:25:38;18.55;;;12.00;;
60054;SDS011;45930;53.514;55.904;2023-08-20T02:26:39;21.55;;;12.20;;
60054;SDS011;45930;53.514;55.904;2023-08-20T02:27:40;21.00;;;12.48;;
60054;SDS011;45930;53.514;55.904;2023-08-20T02:28:41;19.98;;;12.77;;
60054;SDS011;45930;53.514;55.904;2023-08-20T02:29:42;18.45;;;11.93;;
60054;SDS011;45930;53.514;55.904;2023-08-20T02:30:43;21.85;;;13.25;;
60054;SDS011;45930;53.514;55.904;2023-08-20T02:31:45;18.13;;;12.38;;
60054;SDS011;45930;53.514;55.904;2023-08-20T02:32:46;19.15;;;12.68;;
60054;SDS011;45930;53.514;55.904;2023-08-20T02:33:47;18.27;;;11.35;;
60054;SDS011;45930;53.514;55.904;2023-08-20T02:34:51;17.63;;;12.43;;
60054;SDS011;45930;53.514;55.904;2023-08-20T02:35:52;17.40;;;11.82;;
60054;SDS011;45930;53.514;55.904;2023-08-20T02:36:53;17.25;;;11.90;;
60054;SDS011;45930;53.514;55.904;2023-08-20T02:37:53;18.65;;;11.63;;
60054;SDS011;45930;53.514;55.904;2023-08-20T02:38:54;19.50;;;12.85;;
60054;SDS011;45930;53.514;55.904;2023-08-20T02:39:55;16.95;;;11.75;;
60054;SDS011;45930;53.514;55.904;2023-08-20T02:40:56;17.70;;;12.00;;
60054;SDS011;45930;53.514;55.904;2023-08-20T02:41:57;15.65;;;11.90;;
60054;SDS011;45930;53.514;55.904;2023-08-20T02:42:58;17.55;;;12.02;;
60054;SDS011;45930;53.514;55.904;2023-08-20T02:43:59;20.38;;;12.60;;
60054;SDS011;45930;53.514;55.904;2023-08-20T02:45:00;18.05;;;12.05;;
60054;SDS011;45930;53.514;55.904;2023-08-20T02:46:01;22.98;;;12.98;;
60054;SDS011;45930;53.514;55.904;2023-08-20T02:47:03;19.70;;;11.43;;
60054;SDS011;45930;53.514;55.904;2023-08-20T02:48:03;17.95;;;11.02;;
60054;SDS011;45930;53.514;55.904;2023-08-20T02:49:04;18.90;;;11.77;;
60054;SDS011;45930;53.514;55.904;2023-08-20T02:50:06;15.60;;;10.52;;
60054;SDS011;45930;53.514;55.904;2023-08-20T02:51:07;18.48;;;10.77;;
60054;SDS011;45930;53.514;55.904;2023-08-20T02:52:08;18.98;;;11.98;;
60054;SDS011;45930;53.514;55.904;2023-08-20T02:53:08;17.13;;;10.93;;
60054;SDS011;45930;53.514;55.904;2023-08-20T02:54:09;17.33;;;12.15;;
60054;SDS011;45930;53.514;55.904;2023-08-20T02:55:10;17.75;;;11.65;;
60054;SDS011;45930;53.514;55.904;2023-08-20T02:56:11;18.77;;;12.55;;
60054;SDS011;45930;53.514;55.904;2023-08-20T02:57:12;18.00;;;11.25;;
60054;SDS011;45930;53.514;55.904;2023-08-20T02:58:12;16.65;;;11.82;;
60054;SDS011;45930;53.514;55.904;2023-08-20T02:59:13;18.80;;;11.50;;
60054;SDS011;45930;53.514;55.904;2023-08-20T03:00:14;17.23;;;11.40;;
60054;SDS011;45930;53.514;55.904;2023-08-20T03:01:22;15.88;;;11.30;;
60054;SDS011;45930;53.514;55.904;2023-08-20T03:02:24;18.77;;;12.15;;
60054;SDS011;45930;53.514;55.904;2023-08-20T03:03:24;16.85;;;10.98;;
60054;SDS011;45930;53.514;55.904;2023-08-20T03:04:25;14.95;;;10.80;;
60054;SDS011;45930;53.514;55.904;2023-08-20T03:05:26;18.25;;;12.13;;
60054;SDS011;45930;53.514;55.904;2023-08-20T03:06:27;18.80;;;12.15;;
60054;SDS011;45930;53.514;55.904;2023-08-20T03:07:27;17.05;;;11.48;;
60054;SDS011;45930;53.514;55.904;2023-08-20T03:08:28;15.60;;;12.05;;
60054;SDS011;45930;53.514;55.904;2023-08-20T03:09:29;17.25;;;12.35;;
60054;SDS011;45930;53.514;55.904;2023-08-20T03:10:30;17.90;;;12.07;;
60054;SDS011;45930;53.514;55.904;2023-08-20T03:11:34;18.17;;;12.15;;
60054;SDS011;45930;53.514;55.904;2023-08-20T03:12:35;18.85;;;12.55;;
60054;SDS011;45930;53.514;55.904;2023-08-20T03:13:36;16.60;;;11.45;;
60054;SDS011;45930;53.514;55.904;2023-08-20T03:14:37;17.50;;;10.73;;
60054;SDS011;45930;53.514;55.904;2023-08-20T03:15:38;17.55;;;10.90;;
60054;SDS011;45930;53.514;55.904;2023-08-20T03:16:38;16.00;;;10.77;;
60054;SDS011;45930;53.514;55.904;2023-08-20T03:17:39;17.27;;;10.73;;
60054;SDS011;45930;53.514;55.904;2023-08-20T03:18:40;16.98;;;11.70;;
60054;SDS011;45930;53.514;55.904;2023-08-20T03:19:53;15.25;;;10.70;;
60054;SDS011;45930;53.514;55.904;2023-08-20T03:20:57;15.88;;;10.52;;
60054;SDS011;45930;53.514;55.904;2023-08-20T03:21:59;17.27;;;11.20;;
60054;SDS011;45930;53.514;55.904;2023-08-20T03:22:59;17.52;;;10.38;;
60054;SDS011;45930;53.514;55.904;2023-08-20T03:24:00;18.85;;;11.73;;
60054;SDS011;45930;53.514;55.904;2023-08-20T03:25:02;17.98;;;11.63;;
60054;SDS011;45930;53.514;55.904;2023-08-20T03:26:05;18.88;;;11.82;;
60054;SDS011;45930;53.514;55.904;2023-08-20T03:27:06;15.68;;;10.75;;
60054;SDS011;45930;53.514;55.904;2023-08-20T03:28:07;20.02;;;11.88;;
60054;SDS011;45930;53.514;55.904;2023-08-20T03:29:08;19.45;;;11.40;;
60054;SDS011;45930;53.514;55.904;2023-08-20T03:30:09;15.27;;;11.18;;
60054;SDS011;45930;53.514;55.904;2023-08-20T03:31:10;18.50;;;11.20;;
60054;SDS011;45930;53.514;55.904;2023-08-20T03:32:12;17.95;;;11.13;;
60054;SDS011;45930;53.514;55.904;2023-08-20T03:33:12;14.95;;;10.35;;
60054;SDS011;45930;53.514;55.904;2023-08-20T03:34:13;15.07;;;11.40;;
60054;SDS011;45930;53.514;55.904;2023-08-20T03:35:14;17.45;;;13.20;;
60054;SDS011;45930;53.514;55.904;2023-08-20T03:36:15;15.68;;;10.52;;
60054;SDS011;45930;53.514;55.904;2023-08-20T03:37:16;16.63;;;9.73;;
60054;SDS011;45930;53.514;55.904;2023-08-20T03:38:17;16.65;;;12.15;;
60054;SDS011;45930;53.514;55.904;2023-08-20T03:39:18;17.23;;;11.13;;
60054;SDS011;45930;53.514;55.904;2023-08-20T03:40:20;15.50;;;10.60;;
60054;SDS011;45930;53.514;55.904;2023-08-20T03:41:20;16.42;;;10.50;;
60054;SDS011;45930;53.514;55.904;2023-08-20T03:42:21;14.75;;;11.23;;
60054;SDS011;45930;53.514;55.904;2023-08-20T03:43:22;14.18;;;10.88;;
60054;SDS011;45930;53.514;55.904;2023-08-20T03:44:23;19.10;;;11.43;;
60054;SDS011;45930;53.514;55.904;2023-08-20T03:45:25;21.58;;;11.88;;
60054;SDS011;45930;53.514;55.904;2023-08-20T03:46:26;19.15;;;12.10;;
60054;SDS011;45930;53.514;55.904;2023-08-20T03:47:27;15.38;;;11.15;;
60054;SDS011;45930;53.514;55.904;2023-08-20T03:48:28;17.70;;;11.07;;
60054;SDS011;45930;53.514;55.904;2023-08-20T03:49:29;17.80;;;11.05;;
60054;SDS011;45930;53.514;55.904;2023-08-20T03:50:30;13.32;;;10.13;;
60054;SDS011;45930;53.514;55.904;2023-08-20T03:51:31;15.32;;;10.43;;
60054;SDS011;45930;53.514;55.904;2023-08-20T03:52:31;18.15;;;11.07;;
60054;SDS011;45930;53.514;55.904;2023-08-20T03:53:32;15.68;;;11.05;;
60054;SDS011;45930;53.514;55.904;2023-08-20T03:54:33;16.17;;;11.63;;
60054;SDS011;45930;53.514;55.904;2023-08-20T03:55:34;17.20;;;12.40;;
60054;SDS011;45930;53.514;55.904;2023-08-20T03:56:35;16.25;;;11.05;;
60054;SDS011;45930;53.514;55.904;2023-08-20T03:57:36;18.80;;;11.93;;
60054;SDS011;45930;53.514;55.904;2023-08-20T03:58:37;18.33;;;11.77;;
60054;SDS011;45930;53.514;55.904;2023-08-20T03:59:39;16.08;;;11.95;;
60054;SDS011;45930;53.514;55.904;2023-08-20T04:00:40;17.65;;;11.85;;
60054;SDS011;45930;53.514;55.904;2023-08-20T04:01:40;20.52;;;12.52;;
60054;SDS011;45930;53.514;55.904;2023-08-20T04:02:42;18.38;;;12.40;;
60054;SDS011;45930;53.514;55.904;2023-08-20T04:03:42;18.05;;;12.82;;
60054;SDS011;45930;53.514;55.904;2023-08-20T04:04:43;13.90;;;10.98;;
60054;SDS011;45930;53.514;55.904;2023-08-20T04:05:44;18.40;;;12.05;;
60054;SDS011;45930;53.514;55.904;2023-08-20T04:06:45;18.00;;;10.73;;
60054;SDS011;45930;53.514;55.904;2023-08-20T04:07:46;17.20;;;11.18;;
60054;SDS011;45930;53.514;55.904;2023-08-20T04:08:47;17.02;;;10.38;;
60054;SDS011;45930;53.514;55.904;2023-08-20T04:09:48;18.02;;;11.25;;
60054;SDS011;45930;53.514;55.904;2023-08-20T04:10:49;17.05;;;11.20;;
60054;SDS011;45930;53.514;55.904;2023-08-20T04:11:49;16.58;;;11.27;;
60054;SDS011;45930;53.514;55.904;2023-08-20T04:12:50;16.52;;;12.02;;
60054;SDS011;45930;53.514;55.904;2023-08-20T04:13:51;17.40;;;11.57;;
60054;SDS011;45930;53.514;55.904;2023-08-20T04:14:52;17.40;;;11.57;;
60054;SDS011;45930;53.514;55.904;2023-08-20T04:15:53;16.85;;;11.68;;
60054;SDS011;45930;53.514;55.904;2023-08-20T04:16:54;15.45;;;11.20;;
60054;SDS011;45930;53.514;55.904;2023-08-20T04:17:54;18.63;;;11.70;;
60054;SDS011;45930;53.514;55.904;2023-08-20T04:18:55;17.25;;;12.02;;
60054;SDS011;45930;53.514;55.904;2023-08-20T04:19:56;15.10;;;11.07;;
60054;SDS011;45930;53.514;55.904;2023-08-20T04:20:57;20.05;;;13.00;;
60054;SDS011;45930;53.514;55.904;2023-08-20T04:21:58;16.88;;;11.80;;
60054;SDS011;45930;53.514;55.904;2023-08-20T04:22:59;16.67;;;11.40;;
60054;SDS011;45930;53.514;55.904;2023-08-20T04:23:59;18.58;;;12.25;;
60054;SDS011;45930;53.514;55.904;2023-08-20T04:25:00;16.63;;;11.95;;
60054;SDS011;45930;53.514;55.904;2023-08-20T04:26:01;19.92;;;11.80;;
60054;SDS011;45930;53.514;55.904;2023-08-20T04:27:02;18.35;;;11.88;;
60054;SDS011;45930;53.514;55.904;2023-08-20T04:28:03;16.83;;;11.50;;
60054;SDS011;45930;53.514;55.904;2023-08-20T04:29:04;17.83;;;12.05;;
60054;SDS011;45930;53.514;55.904;2023-08-20T04:30:06;14.63;;;11.00;;
60054;SDS011;45930;53.514;55.904;2023-08-20T04:31:07;15.70;;;11.70;;
60054;SDS011;45930;53.514;55.904;2023-08-20T04:32:08;16.35;;;12.07;;
60054;SDS011;45930;53.514;55.904;2023-08-20T04:33:09;19.58;;;12.43;;
60054;SDS011;45930;53.514;55.904;2023-08-20T04:34:10;16.52;;;11.57;;
60054;SDS011;45930;53.514;55.904;2023-08-20T04:35:11;15.45;;;11.50;;
60054;SDS011;45930;53.514;55.904;2023-08-20T04:36:12;16.45;;;12.48;;
60054;SDS011;45930;53.514;55.904;2023-08-20T04:37:12;15.43;;;11.02;;
60054;SDS011;45930;53.514;55.904;2023-08-20T04:38:13;16.60;;;11.77;;
60054;SDS011;45930;53.514;55.904;2023-08-20T04:39:14;18.98;;;11.40;;
60054;SDS011;45930;53.514;55.904;2023-08-20T04:40:15;17.38;;;11.27;;
60054;SDS011;45930;53.514;55.904;2023-08-20T04:41:16;19.85;;;11.80;;
60054;SDS011;45930;53.514;55.904;2023-08-20T04:42:16;15.93;;;9.80;;
60054;SDS011;45930;53.514;55.904;2023-08-20T04:43:17;17.13;;;11.35;;
60054;SDS011;45930;53.514;55.904;2023-08-20T04:44:18;11.13;;;8.30;;
60054;SDS011;45930;53.514;55.904;2023-08-20T04:45:19;18.23;;;10.63;;
60054;SDS011;45930;53.514;55.904;2023-08-20T04:46:20;15.20;;;12.35;;
60054;SDS011;45930;53.514;55.904;2023-08-20T04:47:21;16.55;;;11.48;;
60054;SDS011;45930;53.514;55.904;2023-08-20T04:48:22;17.75;;;12.48;;
60054;SDS011;45930;53.514;55.904;2023-08-20T04:49:22;19.52;;;11.70;;
60054;SDS011;45930;53.514;55.904;2023-08-20T04:50:26;18.85;;;10.73;;
60054;SDS011;45930;53.514;55.904;2023-08-20T04:51:27;19.85;;;12.48;;
60054;SDS011;45930;53.514;55.904;2023-08-20T04:52:27;14.93;;;10.85;;
60054;SDS011;45930;53.514;55.904;2023-08-20T04:53:28;14.13;;;10.20;;
60054;SDS011;45930;53.514;55.904;2023-08-20T04:54:29;14.45;;;11.75;;
60054;SDS011;45930;53.514;55.904;2023-08-20T04:55:30;16.45;;;11.45;;
60054;SDS011;45930;53.514;55.904;2023-08-20T04:56:31;14.95;;;11.85;;
60054;SDS011;45930;53.514;55.904;2023-08-20T04:57:32;15.15;;;10.95;;
60054;SDS011;45930;53.514;55.904;2023-08-20T04:58:32;15.32;;;11.05;;
60054;SDS011;45930;53.514;55.904;2023-08-20T04:59:33;13.68;;;10.90;;
60054;SDS011;45930;53.514;55.904;2023-08-20T05:00:34;15.10;;;10.93;;
60054;SDS011;45930;53.514;55.904;2023-08-20T05:01:35;17.48;;;11.05;;
60054;SDS011;45930;53.514;55.904;2023-08-20T05:02:36;17.33;;;10.55;;
60054;SDS011;45930;53.514;55.904;2023-08-20T05:03:36;17.73;;;11.90;;
60054;SDS011;45930;53.514;55.904;2023-08-20T05:04:37;14.73;;;11.05;;
60054;SDS011;45930;53.514;55.904;2023-08-20T05:05:39;14.52;;;9.32;;
60054;SDS011;45930;53.514;55.904;2023-08-20T05:06:39;14.75;;;10.68;;
60054;SDS011;45930;53.514;55.904;2023-08-20T05:07:40;17.27;;;11.75;;
60054;SDS011;45930;53.514;55.904;2023-08-20T05:08:42;28.90;;;12.68;;
60054;SDS011;45930;53.514;55.904;2023-08-20T05:09:43;15.63;;;10.65;;
60054;SDS011;45930;53.514;55.904;2023-08-20T05:10:46;17.38;;;12.15;;
60054;SDS011;45930;53.514;55.904;2023-08-20T05:11:47;18.17;;;10.38;;
60054;SDS011;45930;53.514;55.904;2023-08-20T05:12:49;16.92;;;10.90;;
60054;SDS011;45930;53.514;55.904;2023-08-20T05:13:50;14.18;;;9.95;;
60054;SDS011;45930;53.514;55.904;2023-08-20T05:14:50;13.48;;;10.85;;
60054;SDS011;45930;53.514;55.904;2023-08-20T05:15:51;15.27;;;10.02;;
60054;SDS011;45930;53.514;55.904;2023-08-20T05:16:52;14.60;;;10.75;;
60054;SDS011;45930;53.514;55.904;2023-08-20T05:17:53;16.42;;;11.48;;
60054;SDS011;45930;53.514;55.904;2023-08-20T05:18:53;17.05;;;11.43;;
60054;SDS011;45930;53.514;55.904;2023-08-20T05:19:54;17.42;;;11.90;;
60054;SDS011;45930;53.514;55.904;2023-08-20T05:20:55;18.58;;;12.18;;
60054;SDS011;45930;53.514;55.904;2023-08-20T05:21:56;12.68;;;10.30;;
60054;SDS011;45930;53.514;55.904;2023-08-20T05:22:58;20.55;;;12.32;;
60054;SDS011;45930;53.514;55.904;2023-08-20T05:23:59;14.25;;;10.65;;
60054;SDS011;45930;53.514;55.904;2023-08-20T05:25:00;19.58;;;10.88;;
60054;SDS011;45930;53.514;55.904;2023-08-20T05:26:01;16.77;;;10.90;;
60054;SDS011;45930;53.514;55.904;2023-08-20T05:28:06;15.95;;;11.95;;
60054;SDS011;45930;53.514;55.904;2023-08-20T05:29:07;20.05;;;12.50;;
60054;SDS011;45930;53.514;55.904;2023-08-20T05:30:07;17.52;;;10.93;;
60054;SDS011;45930;53.514;55.904;2023-08-20T05:31:08;15.32;;;9.10;;
60054;SDS011;45930;53.514;55.904;2023-08-20T05:32:11;14.30;;;10.00;;
60054;SDS011;45930;53.514;55.904;2023-08-20T05:33:14;15.57;;;10.60;;
60054;SDS011;45930;53.514;55.904;2023-08-20T05:34:15;14.00;;;10.30;;
60054;SDS011;45930;53.514;55.904;2023-08-20T05:35:16;13.27;;;9.93;;
60054;SDS011;45930;53.514;55.904;2023-08-20T05:36:17;15.00;;;11.13;;
60054;SDS011;45930;53.514;55.904;2023-08-20T05:37:18;17.10;;;11.00;;
60054;SDS011;45930;53.514;55.904;2023-08-20T05:38:18;16.45;;;11.63;;
60054;SDS011;45930;53.514;55.904;2023-08-20T05:39:19;13.52;;;10.32;;
60054;SDS011;45930;53.514;55.904;2023-08-20T05:40:20;14.15;;;9.15;;
60054;SDS011;45930;53.514;55.904;2023-08-20T05:41:21;16.08;;;10.40;;
60054;SDS011;45930;53.514;55.904;2023-08-20T05:42:22;13.85;;;11.13;;
60054;SDS011;45930;53.514;55.904;2023-08-20T05:43:22;13.75;;;10.75;;
60054;SDS011;45930;53.514;55.904;2023-08-20T05:44:23;15.30;;;10.93;;
60054;SDS011;45930;53.514;55.904;2023-08-20T05:45:24;14.43;;;10.60;;
60054;SDS011;45930;53.514;55.904;2023-08-20T05:46:25;12.73;;;9.70;;
60054;SDS011;45930;53.514;55.904;2023-08-20T05:47:26;15.45;;;10.60;;
60054;SDS011;45930;53.514;55.904;2023-08-20T05:48:26;12.85;;;10.20;;
60054;SDS011;45930;53.514;55.904;2023-08-20T05:49:27;13.15;;;10.30;;
60054;SDS011;45930;53.514;55.904;2023-08-20T05:50:28;17.38;;;10.10;;
60054;SDS011;45930;53.514;55.904;2023-08-20T05:51:29;19.27;;;10.40;;
60054;SDS011;45930;53.514;55.904;2023-08-20T05:52:30;11.52;;;9.82;;
60054;SDS011;45930;53.514;55.904;2023-08-20T05:53:31;14.50;;;10.32;;
60054;SDS011;45930;53.514;55.904;2023-08-20T05:54:31;14.35;;;10.50;;
60054;SDS011;45930;53.514;55.904;2023-08-20T05:55:32;13.60;;;10.02;;
60054;SDS011;45930;53.514;55.904;2023-08-20T05:56:33;14.90;;;10.60;;
60054;SDS011;45930;53.514;55.904;2023-08-20T05:57:34;19.65;;;10.18;;
60054;SDS011;45930;53.514;55.904;2023-08-20T05:58:37;20.02;;;10.20;;
60054;SDS011;45930;53.514;55.904;2023-08-20T05:59:38;11.52;;;9.73;;
60054;SDS011;45930;53.514;55.904;2023-08-20T06:00:38;12.13;;;9.20;;
60054;SDS011;45930;53.514;55.904;2023-08-20T06:01:39;14.70;;;10.30;;
60054;SDS011;45930;53.514;55.904;2023-08-20T06:02:40;14.23;;;9.48;;
60054;SDS011;45930;53.514;55.904;2023-08-20T06:03:41;11.95;;;9.63;;
60054;SDS011;45930;53.514;55.904;2023-08-20T06:04:42;13.40;;;9.63;;